KWRB

Robins AFB Airport

Warner Robins, Georgia, USA
TAF AMD KWRB 212205Z 2122/2303 25009KT 8000 -SHRA FEW020 BKN200 QNH2979INS TEMPO 2200/2203 28030G50KT 4800 -TSRAGR OVC030CB BECMG 2205/2206 26006KT 9999 NSW SCT040 QNH2983INS BECMG 2214/2215 27012G18KT 9999 SCT045 QNH2978INS BECMG 2221/2222 27006KT 9999 BKN045 QNH2978INS TX30/2122Z TN21/2210Z
Issued Valid From Valid To
Jul-21 @ 22:05 UTC
(an hour ago)
Jul-21 @ 22:00 UTC
(an hour ago)
Jul-23 @ 03:00 UTC
(-1 days ago)
Jul-21 @ 22:00 to Jul-22 @ 05:00
TAF AMD KWRB 212205Z 2122/2303 25009KT 8000 -SHRA FEW020 BKN200 QNH2979INS
Wind Visibility Clouds Conditions Readings
250° at 9 knots 41/97 miles
  • Few at 2,000' AGL
  • Broken at 20,000' AGL
  • Light Rain
Altimeter 29.79" Hg
Pressure 1009 hPa
Temporary Jul-22 @ 00:00 to Jul-22 @ 03:00
TEMPO 2200/2203 28030G50KT 4800 -TSRAGR OVC030CB
Wind Visibility Clouds Conditions
280° at 30 knots
 Gusting to 50 knots
21/98 miles
  • Overcast at 3,000' AGL
  • Light Thunderstorm
  • Light Rain
  • Light Thunderstorm
  • Light Hail
Becoming Jul-22 @ 05:00 to Jul-22 @ 14:00
BECMG 2205/2206 26006KT 9999 NSW SCT040 QNH2983INS
Wind Visibility Clouds Conditions Readings
260° at 6 knots Greater than 6 miles
  • Scattered at 4,000' AGL
Altimeter 29.82" Hg
Pressure 1010 hPa
Becoming Jul-22 @ 14:00 to Jul-22 @ 21:00
BECMG 2214/2215 27012G18KT 9999 SCT045 QNH2978INS
Wind Visibility Clouds Conditions Readings
270° at 12 knots
 Gusting to 18 knots
Greater than 6 miles
  • Scattered at 4,500' AGL
Altimeter 29.79" Hg
Pressure 1009 hPa
Becoming Jul-22 @ 21:00 to Jul-23 @ 03:00
BECMG 2221/2222 27006KT 9999 BKN045 QNH2978INS TX30/2122Z TN21/2210Z
Wind Visibility Clouds Conditions Readings
270° at 6 knots Greater than 6 miles
  • Broken at 4,500' AGL
Altimeter 29.79" Hg
Pressure 1009 hPa
TAF AMD KWRB 212205Z 2122/2303 25009KT 8000 -SHRA FEW020 BKN200 QNH2979INS TEMPO 2200/2203 28030G50KT 4800 -TSRAGR OVC030CB BECMG 2205/2206 26006KT 9999 NSW SCT040 QNH2983INS BECMG 2214/2215 27012G18KT 9999 SCT045 QNH2978INS BECMG 2221/2222 27006KT 9999 BKN045 QNH2978INS TX30/2122Z TN21/2210Z
Issued Jul-21 @ 22:05 UTC
(an hour ago)
Valid From Jul-21 @ 22:00 UTC
(an hour ago)
Valid To Jul-23 @ 03:00 UTC
(-1 days ago)
Jul-21 @ 22:00 - Jul-22 @ 05:00
Wind Visibility
250° at 9 knots 41/97 miles
Clouds
  • Few at 2,000' AGL
  • Broken at 20,000' AGL
Conditions
  • Light Rain
Temporary Jul-22 @ 00:00 - Jul-22 @ 03:00
Wind Visibility
280° at 30 knots
 Gusting to 50 knots
21/98 miles
Clouds
  • Overcast at 3,000' AGL
Conditions
  • Light Thunderstorm
  • Light Rain
  • Light Thunderstorm
  • Light Hail
Becoming Jul-22 @ 05:00 - Jul-22 @ 14:00
Wind Visibility
260° at 6 knots Greater than 6 miles
Clouds
  • Scattered at 4,000' AGL
Conditions
Becoming Jul-22 @ 14:00 - Jul-22 @ 21:00
Wind Visibility
270° at 12 knots
 Gusting to 18 knots
Greater than 6 miles
Clouds
  • Scattered at 4,500' AGL
Conditions
Becoming Jul-22 @ 21:00 - Jul-23 @ 03:00
Wind Visibility
270° at 6 knots Greater than 6 miles
Clouds
  • Broken at 4,500' AGL
Conditions